createdAt,value
2023-02-03T00:01:12.471Z,4.32
2023-02-03T00:03:39.928Z,4.22
2023-02-03T00:06:07.540Z,3.67
2023-02-03T00:08:35.003Z,4.15
2023-02-03T00:11:02.543Z,3.92
2023-02-03T00:13:29.986Z,4.03
2023-02-03T00:15:57.569Z,4.13
2023-02-03T00:18:24.999Z,4.30
2023-02-03T00:20:52.459Z,4.25
2023-02-03T00:23:19.959Z,4.63
2023-02-03T00:25:47.482Z,4.25
2023-02-03T00:28:14.985Z,3.80
2023-02-03T00:30:42.467Z,4.25
2023-02-03T00:33:09.972Z,4.72
2023-02-03T00:35:40.839Z,4.00
2023-02-03T00:38:08.364Z,4.13
2023-02-03T00:40:35.946Z,4.05
2023-02-03T00:43:03.472Z,4.35
2023-02-03T00:45:30.969Z,4.10
2023-02-03T00:47:58.561Z,4.38
2023-02-03T00:50:26.293Z,4.10
2023-02-03T00:52:53.956Z,4.05
2023-02-03T00:55:21.341Z,4.30
2023-02-03T00:57:48.991Z,4.53
2023-02-03T01:00:16.670Z,3.95
2023-02-03T01:02:44.309Z,4.10
2023-02-03T01:05:11.793Z,4.10
2023-02-03T01:07:39.590Z,4.05
2023-02-03T01:10:07.233Z,4.50
2023-02-03T01:12:34.816Z,4.18
2023-02-03T01:15:02.310Z,4.47
2023-02-03T01:17:29.796Z,4.22
2023-02-03T01:19:57.191Z,4.20
2023-02-03T01:22:24.639Z,4.10
2023-02-03T01:24:52.049Z,4.03
2023-02-03T01:27:19.651Z,3.60
2023-02-03T01:29:47.048Z,3.95
2023-02-03T01:32:14.520Z,3.85
2023-02-03T01:34:43.291Z,4.00
2023-02-03T01:37:10.792Z,3.90
2023-02-03T01:39:38.196Z,4.03
2023-02-03T01:42:06.011Z,3.72
2023-02-03T01:44:33.456Z,3.90
2023-02-03T01:47:01.044Z,4.57
2023-02-03T01:49:36.258Z,3.55
2023-02-03T01:52:04.926Z,4.97
2023-02-03T01:54:33.781Z,3.80
2023-02-03T01:57:07.051Z,4.13
2023-02-03T01:59:35.643Z,3.80
2023-02-03T02:02:03.800Z,3.70
2023-02-03T02:04:37.863Z,3.70
2023-02-03T02:07:05.808Z,3.38
2023-02-03T02:09:33.553Z,3.30
2023-02-03T02:12:01.000Z,4.03
2023-02-03T02:14:28.805Z,3.70
2023-02-03T02:16:56.400Z,3.60
2023-02-03T02:19:26.901Z,3.45
2023-02-03T02:22:09.695Z,3.33
2023-02-03T02:24:52.429Z,3.80
2023-02-03T02:27:32.222Z,3.55
2023-02-03T02:30:18.532Z,3.40
2023-02-03T02:33:04.938Z,3.53
2023-02-03T02:35:35.992Z,3.55
2023-02-03T02:38:14.506Z,3.67
2023-02-03T02:40:50.979Z,3.28
2023-02-03T02:43:21.910Z,3.30
2023-02-03T02:45:51.227Z,3.88
2023-02-03T02:48:24.910Z,3.42
2023-02-03T02:50:54.662Z,3.60
2023-02-03T02:53:23.624Z,3.10
2023-02-03T02:55:52.632Z,3.63
2023-02-03T02:58:20.776Z,3.47
2023-02-03T03:00:48.477Z,3.35
2023-02-03T03:03:20.417Z,3.17
2023-02-03T03:05:58.824Z,3.03
2023-02-03T03:08:36.463Z,3.45
2023-02-03T03:11:04.320Z,3.72
2023-02-03T03:13:37.052Z,3.33
2023-02-03T03:16:07.703Z,3.50
2023-02-03T03:18:38.687Z,3.60
2023-02-03T03:21:07.515Z,3.33
2023-02-03T03:23:39.881Z,3.13
2023-02-03T03:26:30.431Z,2.92
2023-02-03T03:29:16.471Z,2.80
2023-02-03T03:31:44.262Z,2.88
2023-02-03T03:34:13.212Z,3.13
2023-02-03T03:37:03.662Z,2.75
2023-02-03T03:39:34.120Z,3.28
2023-02-03T03:42:01.752Z,3.15
2023-02-03T03:44:37.069Z,2.92
2023-02-03T03:49:32.692Z,3.15
2023-02-03T03:52:02.962Z,3.10
2023-02-03T03:54:31.238Z,3.60
2023-02-03T03:57:04.626Z,3.45
2023-02-03T03:59:33.212Z,3.00
2023-02-03T04:02:05.051Z,2.85
2023-02-03T04:04:33.954Z,2.60
2023-02-03T04:07:01.407Z,2.53
2023-02-03T04:09:29.598Z,2.80
2023-02-03T04:12:03.055Z,2.65
2023-02-03T04:14:31.311Z,3.03
2023-02-03T04:16:59.377Z,2.63
2023-02-03T04:19:27.213Z,2.75
2023-02-03T04:21:54.658Z,2.40
2023-02-03T04:24:22.230Z,2.55
2023-02-03T04:26:49.745Z,3.10
2023-02-03T04:29:17.219Z,3.13
2023-02-03T04:31:44.749Z,3.25
2023-02-03T04:34:12.304Z,3.63
2023-02-03T04:36:39.776Z,4.05
2023-02-03T04:39:07.253Z,3.85
2023-02-03T04:41:34.752Z,3.72
2023-02-03T04:44:02.212Z,3.80
2023-02-03T04:46:29.564Z,3.58
2023-02-03T04:48:56.996Z,4.68
2023-02-03T04:51:24.561Z,3.38
2023-02-03T04:53:51.978Z,3.30
2023-02-03T04:56:19.420Z,3.20
2023-02-03T04:58:46.897Z,3.28
2023-02-03T05:01:14.540Z,3.08
2023-02-03T05:03:42.066Z,3.08
2023-02-03T05:06:09.615Z,2.90
2023-02-03T05:08:37.084Z,3.47
2023-02-03T05:11:06.429Z,3.15
2023-02-03T05:13:34.026Z,3.70
2023-02-03T05:16:01.443Z,2.92
2023-02-03T05:18:28.957Z,3.20
2023-02-03T05:20:56.466Z,3.40
2023-02-03T05:23:24.152Z,3.45
2023-02-03T05:25:51.666Z,3.10
2023-02-03T05:28:19.096Z,3.33
2023-02-03T05:30:46.608Z,3.30
2023-02-03T05:33:14.225Z,3.40
2023-02-03T05:35:41.680Z,3.80
2023-02-03T05:38:09.184Z,3.33
2023-02-03T05:40:55.440Z,3.10
2023-02-03T05:43:22.919Z,3.45
2023-02-03T05:45:50.446Z,3.20
2023-02-03T05:48:17.978Z,3.20
2023-02-03T05:50:45.388Z,3.88
2023-02-03T05:53:12.848Z,3.53
2023-02-03T05:55:41.411Z,3.45
2023-02-03T05:58:08.896Z,3.63
2023-02-03T06:00:36.533Z,3.80
2023-02-03T06:03:04.547Z,3.60
2023-02-03T06:05:32.746Z,3.20
2023-02-03T06:08:00.266Z,3.75
2023-02-03T06:10:28.090Z,3.47
2023-02-03T06:12:55.915Z,3.80
2023-02-03T06:15:23.308Z,3.95
2023-02-03T06:17:51.021Z,4.07
2023-02-03T06:20:20.788Z,5.07
2023-02-03T06:22:48.239Z,4.50
2023-02-03T06:25:15.618Z,4.32
2023-02-03T06:27:43.156Z,4.35
2023-02-03T06:30:11.508Z,4.75
2023-02-03T06:32:38.968Z,4.65
2023-02-03T06:35:06.766Z,4.10
2023-02-03T06:37:35.687Z,3.72
2023-02-03T06:40:04.452Z,3.70
2023-02-03T06:42:31.954Z,4.20
2023-02-03T06:44:59.395Z,4.20
2023-02-03T06:47:26.922Z,4.20
2023-02-03T06:49:54.289Z,4.40
2023-02-03T06:52:21.855Z,4.00
2023-02-03T06:54:49.303Z,4.57
2023-02-03T06:57:16.776Z,4.20
2023-02-03T06:59:44.268Z,3.90
2023-02-03T07:02:12.908Z,4.00
2023-02-03T07:04:40.450Z,3.42
2023-02-03T07:07:07.980Z,3.75
2023-02-03T07:09:35.434Z,3.90
2023-02-03T07:12:02.935Z,4.05
2023-02-03T07:14:31.218Z,4.07
2023-02-03T07:16:58.750Z,4.10
2023-02-03T07:19:26.226Z,4.65
2023-02-03T07:21:53.712Z,5.25
2023-02-03T07:24:21.157Z,3.80
2023-02-03T07:26:48.655Z,4.25
2023-02-03T07:29:16.132Z,4.63
2023-02-03T07:31:43.678Z,5.00
2023-02-03T07:34:11.216Z,5.03
2023-02-03T07:36:38.760Z,4.47
2023-02-03T07:39:06.309Z,4.18
2023-02-03T07:41:33.807Z,4.93
2023-02-03T07:44:01.228Z,5.18
2023-02-03T07:46:28.896Z,5.35
2023-02-03T07:48:56.373Z,5.00
2023-02-03T07:51:23.847Z,5.20
2023-02-03T07:53:51.301Z,4.78
2023-02-03T07:56:18.792Z,5.60
2023-02-03T07:58:46.192Z,5.03
2023-02-03T08:01:15.019Z,5.22
2023-02-03T08:03:42.479Z,4.93
2023-02-03T08:06:10.190Z,5.05
2023-02-03T08:08:37.753Z,4.78
2023-02-03T08:11:05.352Z,5.60
2023-02-03T08:13:32.757Z,5.25
2023-02-03T08:16:00.341Z,5.57
2023-02-03T08:18:27.860Z,4.80
2023-02-03T08:20:55.307Z,5.03
2023-02-03T08:23:22.798Z,5.22
2023-02-03T08:25:53.793Z,4.60
2023-02-03T08:28:21.795Z,5.43
2023-02-03T08:30:49.317Z,5.22
2023-02-03T08:33:16.829Z,5.50
2023-02-03T08:35:46.489Z,4.93
2023-02-03T08:38:13.985Z,4.88
2023-02-03T08:40:41.436Z,4.95
2023-02-03T08:43:09.091Z,4.43
2023-02-03T08:45:36.529Z,4.93
2023-02-03T08:48:04.250Z,5.40
2023-02-03T08:50:31.954Z,5.32
2023-02-03T08:52:59.461Z,4.93
2023-02-03T08:55:26.984Z,5.68
2023-02-03T08:57:54.401Z,5.10
2023-02-03T09:00:22.089Z,4.72
2023-02-03T09:02:49.529Z,4.63
2023-02-03T09:05:18.542Z,5.00
2023-02-03T09:07:46.147Z,4.80
2023-02-03T09:10:13.710Z,5.22
2023-02-03T09:12:41.175Z,4.10
2023-02-03T09:15:08.911Z,5.18
2023-02-03T09:17:36.293Z,5.50
2023-02-03T09:20:03.850Z,5.30
2023-02-03T09:22:31.256Z,4.85
2023-02-03T09:24:58.933Z,5.00
2023-02-03T09:27:26.587Z,5.25
2023-02-03T09:29:54.115Z,5.38
2023-02-03T09:32:21.521Z,4.80
2023-02-03T09:34:49.031Z,5.00
2023-02-03T09:37:16.567Z,4.22
2023-02-03T09:39:44.136Z,4.40
2023-02-03T09:42:28.591Z,3.85
2023-02-03T09:44:56.148Z,5.20
2023-02-03T09:47:25.783Z,4.95
2023-02-03T09:49:56.629Z,4.72
2023-02-03T09:52:32.108Z,4.57
2023-02-03T09:55:02.611Z,5.03
2023-02-03T09:57:37.891Z,4.85
2023-02-03T10:02:47.421Z,4.55
2023-02-03T10:05:14.925Z,3.92
2023-02-03T10:08:05.816Z,4.25
2023-02-03T10:10:41.450Z,4.55
2023-02-03T10:13:15.104Z,4.30
2023-02-03T10:15:53.626Z,4.80
2023-02-03T10:18:24.267Z,4.30
2023-02-03T10:20:55.458Z,5.05
2023-02-03T10:23:30.132Z,3.92
2023-02-03T10:25:59.162Z,4.80
2023-02-03T10:28:35.888Z,4.18
2023-02-03T10:31:09.996Z,3.67
2023-02-03T10:33:37.562Z,4.60
2023-02-03T10:36:05.031Z,3.60
2023-02-03T10:38:44.824Z,4.25
2023-02-03T10:41:12.451Z,4.10
2023-02-03T10:43:51.832Z,3.53
2023-02-03T10:46:19.577Z,4.03
2023-02-03T10:48:49.476Z,3.85
2023-02-03T10:51:20.001Z,3.80
2023-02-03T10:53:47.794Z,3.83
2023-02-03T10:56:18.153Z,4.15
2023-02-03T10:58:50.323Z,3.47
2023-02-03T11:01:19.100Z,3.42
2023-02-03T11:04:03.993Z,3.13
2023-02-03T11:06:31.916Z,3.95
2023-02-03T11:08:59.684Z,3.70
2023-02-03T11:11:27.250Z,3.20
2023-02-03T11:14:12.529Z,4.20
2023-02-03T11:16:41.180Z,3.40
2023-02-03T11:19:18.065Z,3.10
2023-02-03T11:24:19.032Z,3.17
2023-02-03T11:26:57.888Z,3.90
2023-02-03T11:29:25.389Z,3.92
2023-02-03T11:31:54.113Z,4.00
2023-02-03T11:34:43.351Z,4.60
2023-02-03T11:37:11.437Z,5.20
2023-02-03T11:39:39.192Z,4.32
2023-02-03T11:42:22.385Z,4.63
2023-02-03T11:44:50.283Z,4.50
2023-02-03T11:47:18.345Z,5.13
2023-02-03T11:49:56.683Z,4.07
2023-02-03T11:52:42.890Z,4.28
2023-02-03T11:55:32.724Z,2.92
2023-02-03T11:58:01.819Z,3.00
2023-02-03T12:00:37.915Z,3.20
2023-02-03T12:03:25.602Z,3.40
2023-02-03T12:06:05.067Z,3.30
2023-02-03T12:08:47.767Z,3.08
2023-02-03T12:11:30.660Z,3.55
2023-02-03T12:14:16.504Z,3.60
2023-02-03T12:16:50.071Z,3.85
2023-02-03T12:19:17.535Z,3.80
2023-02-03T12:21:47.527Z,3.90
2023-02-03T12:24:30.476Z,3.40
2023-02-03T12:27:09.797Z,3.63
2023-02-03T12:29:41.345Z,3.55
2023-02-03T12:32:11.720Z,3.30
2023-02-03T12:34:41.891Z,3.40
2023-02-03T12:37:11.064Z,3.40
2023-02-03T12:39:44.635Z,3.90
2023-02-03T12:42:15.126Z,4.10
2023-02-03T12:44:51.991Z,3.60
2023-02-03T12:47:35.146Z,4.38
2023-02-03T12:50:26.326Z,3.70
2023-02-03T12:52:58.048Z,3.10
2023-02-03T12:55:44.905Z,3.40
2023-02-03T12:58:27.358Z,4.10
2023-02-03T13:01:13.371Z,4.22
2023-02-03T13:03:48.568Z,3.20
2023-02-03T13:06:20.744Z,4.05
2023-02-03T13:09:01.528Z,3.40
2023-02-03T13:11:32.203Z,4.32
2023-02-03T13:14:03.380Z,3.20
2023-02-03T13:16:36.350Z,3.30
2023-02-03T13:19:07.656Z,3.90
2023-02-03T13:21:35.207Z,2.95
2023-02-03T13:24:04.586Z,2.60
2023-02-03T13:26:54.104Z,2.90
2023-02-03T13:29:27.519Z,2.80
2023-02-03T13:31:55.040Z,3.70
2023-02-03T13:34:25.539Z,3.28
2023-02-03T13:37:14.838Z,3.22
2023-02-03T13:39:48.371Z,2.78
2023-02-03T13:42:19.015Z,2.75
2023-02-03T13:44:51.543Z,3.10
2023-02-03T13:47:22.757Z,3.30
2023-02-03T13:49:53.731Z,2.80
2023-02-03T13:52:29.233Z,3.08
2023-02-03T13:54:57.476Z,3.38
2023-02-03T13:57:34.590Z,3.42
2023-02-03T14:00:03.551Z,7.68
2023-02-03T14:02:45.015Z,13.35
2023-02-03T14:05:30.950Z,3.20
2023-02-03T14:07:58.443Z,3.92
2023-02-03T14:10:25.917Z,3.63
2023-02-03T14:12:53.370Z,3.72
2023-02-03T14:15:20.946Z,3.00
2023-02-03T14:17:48.383Z,3.40
2023-02-03T14:20:28.090Z,2.90
2023-02-03T14:22:55.609Z,3.10
2023-02-03T14:25:23.235Z,2.90
2023-02-03T14:27:59.766Z,3.10
2023-02-03T14:30:27.570Z,3.40
2023-02-03T14:32:56.229Z,2.97
2023-02-03T14:35:25.117Z,3.13
2023-02-03T14:37:53.595Z,3.60
2023-02-03T14:40:27.173Z,4.07
2023-02-03T14:43:08.569Z,3.65
2023-02-03T14:45:40.200Z,2.90
2023-02-03T14:48:26.476Z,3.13
2023-02-03T14:51:32.377Z,3.20
2023-02-03T14:54:05.750Z,4.18
2023-02-03T14:57:10.293Z,3.10
2023-02-03T14:59:39.477Z,3.00
2023-02-03T15:02:07.952Z,3.40
2023-02-03T15:04:35.462Z,2.95
2023-02-03T15:07:02.900Z,3.35
2023-02-03T15:09:40.875Z,3.38
2023-02-03T15:12:18.522Z,3.30
2023-02-03T15:14:46.441Z,3.25
2023-02-03T15:17:24.605Z,3.00
2023-02-03T15:19:52.443Z,2.78
2023-02-03T15:22:24.031Z,3.00
2023-02-03T15:24:59.504Z,3.08
2023-02-03T15:29:54.873Z,3.17
2023-02-03T15:32:28.967Z,4.43
2023-02-03T15:34:58.401Z,4.28
2023-02-03T15:37:28.801Z,4.20
2023-02-03T15:40:04.715Z,3.92
2023-02-03T15:42:35.726Z,3.92
2023-02-03T15:45:18.221Z,4.97
2023-02-03T15:47:53.941Z,5.85
2023-02-03T15:50:31.064Z,5.30
2023-02-03T15:53:01.583Z,5.00
2023-02-03T15:55:42.281Z,4.40
2023-02-03T15:58:17.609Z,4.88
2023-02-03T16:03:21.768Z,7.65
2023-02-03T16:05:50.290Z,7.30
2023-02-03T16:08:36.107Z,5.40
2023-02-03T16:11:21.331Z,3.88
2023-02-03T16:13:48.876Z,4.32
2023-02-03T16:16:22.142Z,4.43
2023-02-03T16:19:12.558Z,4.38
2023-02-03T16:21:52.013Z,3.90
2023-02-03T16:24:34.560Z,3.92
2023-02-03T16:27:20.783Z,3.80
2023-02-03T16:30:07.134Z,3.70
2023-02-03T16:32:53.407Z,3.60
2023-02-03T16:35:39.336Z,3.58
2023-02-03T16:38:35.392Z,4.05
2023-02-03T16:41:23.689Z,4.28
2023-02-03T16:44:09.621Z,4.47
2023-02-03T16:46:56.353Z,4.63
2023-02-03T16:49:42.441Z,4.93
2023-02-03T16:52:10.064Z,5.05
2023-02-03T16:54:37.485Z,4.63
2023-02-03T16:57:05.036Z,4.28
2023-02-03T16:59:32.464Z,3.88
2023-02-03T17:01:59.979Z,4.30
2023-02-03T17:04:27.633Z,4.32
2023-02-03T17:06:55.051Z,3.80
2023-02-03T17:09:25.033Z,4.25
2023-02-03T17:11:52.585Z,4.85
2023-02-03T17:14:20.001Z,3.95
2023-02-03T17:16:47.495Z,3.97
2023-02-03T17:19:15.248Z,4.28
2023-02-03T17:21:42.726Z,4.30
2023-02-03T17:24:10.253Z,4.03
2023-02-03T17:26:37.692Z,5.00
2023-02-03T17:29:05.253Z,4.78
2023-02-03T17:31:32.766Z,5.28
2023-02-03T17:34:00.587Z,4.20
2023-02-03T17:36:27.975Z,4.30
2023-02-03T17:55:30.877Z,4.05
2023-02-03T17:57:58.453Z,4.80
2023-02-03T18:00:26.009Z,4.22
2023-02-03T18:02:53.576Z,5.05
2023-02-03T18:05:21.080Z,5.25
2023-02-03T18:10:20.957Z,5.10
2023-02-03T18:12:48.353Z,6.25
2023-02-03T18:15:16.040Z,8.30
2023-02-03T18:17:43.650Z,8.57
2023-02-03T18:20:11.517Z,8.25
2023-02-03T18:22:39.131Z,6.65
2023-02-03T18:25:06.927Z,5.80
2023-02-03T18:27:34.340Z,6.07
2023-02-03T18:30:01.771Z,6.88
2023-02-03T18:32:29.246Z,5.68
2023-02-03T18:34:56.722Z,5.63
2023-02-03T18:37:24.255Z,4.82
2023-02-03T18:39:51.738Z,4.60
2023-02-03T18:42:19.200Z,4.68
2023-02-03T18:44:46.663Z,4.57
2023-02-03T18:47:14.149Z,4.28
2023-02-03T18:49:42.231Z,4.50
2023-02-03T18:52:15.614Z,5.00
2023-02-03T18:54:43.211Z,4.43
2023-02-03T18:57:13.969Z,4.40
2023-02-03T18:59:41.485Z,4.38
2023-02-03T19:02:10.764Z,4.35
2023-02-03T19:04:38.292Z,5.35
2023-02-03T19:07:05.728Z,4.57
2023-02-03T19:09:34.185Z,4.80
2023-02-03T19:12:03.119Z,4.45
2023-02-03T19:14:30.701Z,5.10
2023-02-03T19:16:58.177Z,5.30
2023-02-03T19:19:25.668Z,5.38
2023-02-03T19:21:53.176Z,5.18
2023-02-03T19:24:21.703Z,5.32
2023-02-03T19:26:49.198Z,5.00
2023-02-03T19:29:17.829Z,5.65
2023-02-03T19:31:45.534Z,5.22
2023-02-03T19:34:19.449Z,4.70
2023-02-03T19:36:49.678Z,5.43
2023-02-03T19:39:18.721Z,6.05
2023-02-03T19:41:46.139Z,5.70
2023-02-03T19:44:13.937Z,6.93
2023-02-03T19:46:42.308Z,5.68
2023-02-03T19:49:13.227Z,5.80
2023-02-03T19:51:41.214Z,6.00
2023-02-03T19:54:11.237Z,5.45
2023-02-03T19:56:38.874Z,5.20
2023-02-03T19:59:06.487Z,5.25
2023-02-03T20:01:34.138Z,5.15
2023-02-03T20:04:01.741Z,5.20
2023-02-03T20:06:31.586Z,5.32
2023-02-03T20:09:03.580Z,4.97
2023-02-03T20:11:31.128Z,5.40
2023-02-03T20:13:58.670Z,5.85
2023-02-03T20:16:26.381Z,5.35
2023-02-03T20:18:53.888Z,5.40
2023-02-03T20:21:21.388Z,5.32
2023-02-03T20:23:48.918Z,5.13
2023-02-03T20:26:16.474Z,4.82
2023-02-03T20:28:46.015Z,5.78
2023-02-03T20:31:13.632Z,4.90
2023-02-03T20:33:41.350Z,4.78
2023-02-03T20:36:10.789Z,4.30
2023-02-03T20:38:38.944Z,4.47
2023-02-03T20:41:09.902Z,4.75
2023-02-03T20:43:38.158Z,4.88
2023-02-03T20:46:15.653Z,4.82
2023-02-03T20:48:43.284Z,5.00
2023-02-03T20:51:14.614Z,4.72
2023-02-03T20:53:42.521Z,4.60
2023-02-03T20:56:14.781Z,4.60
2023-02-03T20:58:43.548Z,4.00
2023-02-03T21:01:17.124Z,5.45
2023-02-03T21:04:03.123Z,5.65
2023-02-03T21:06:31.920Z,4.40
2023-02-03T21:09:21.774Z,4.95
2023-02-03T21:11:49.329Z,4.75
2023-02-03T21:14:24.396Z,4.63
2023-02-03T21:16:54.040Z,4.90
2023-02-03T21:19:29.133Z,4.53
2023-02-03T21:21:57.103Z,4.47
2023-02-03T21:24:27.658Z,5.65
2023-02-03T21:26:55.964Z,5.85
2023-02-03T21:29:43.602Z,4.50
2023-02-03T21:32:14.902Z,4.20
2023-02-03T21:34:45.810Z,5.63
2023-02-03T21:37:22.360Z,4.90
2023-02-03T21:39:50.162Z,4.32
2023-02-03T21:42:41.111Z,5.40
2023-02-03T21:45:18.018Z,4.90
2023-02-03T21:47:45.981Z,5.00
2023-02-03T21:50:29.089Z,4.65
2023-02-03T21:52:56.988Z,5.43
2023-02-03T21:55:24.450Z,5.25
2023-02-03T21:57:54.732Z,4.60
2023-02-03T22:00:38.973Z,5.28
2023-02-03T22:03:08.557Z,5.75
2023-02-03T22:05:36.030Z,5.10
2023-02-03T22:08:23.678Z,5.15
2023-02-03T22:10:51.331Z,6.70
2023-02-03T22:13:20.150Z,5.00
2023-02-03T22:15:50.374Z,4.38
2023-02-03T22:18:17.896Z,4.80
2023-02-03T22:20:45.281Z,4.63
2023-02-03T22:23:12.870Z,4.43
2023-02-03T22:25:40.708Z,4.05
2023-02-03T22:28:08.404Z,4.13
2023-02-03T22:30:35.950Z,3.95
2023-02-03T22:33:03.466Z,4.55
2023-02-03T22:35:31.454Z,4.18
2023-02-03T22:37:58.890Z,4.00
2023-02-03T22:40:26.304Z,4.05
2023-02-03T22:42:53.800Z,4.10
2023-02-03T22:45:21.828Z,4.25
2023-02-03T22:47:49.297Z,4.00
2023-02-03T22:50:20.439Z,3.67
2023-02-03T22:52:50.890Z,4.00
2023-02-03T22:55:18.337Z,3.95
2023-02-03T22:57:45.792Z,3.97
2023-02-03T23:00:14.068Z,3.85
2023-02-03T23:02:41.580Z,4.13
2023-02-03T23:05:09.959Z,4.57
2023-02-03T23:07:37.506Z,4.07
2023-02-03T23:10:06.013Z,4.00
2023-02-03T23:12:33.912Z,4.22
2023-02-03T23:15:01.349Z,3.78
2023-02-03T23:17:28.891Z,4.10
2023-02-03T23:19:56.311Z,4.10
2023-02-03T23:22:23.793Z,4.15
2023-02-03T23:24:51.211Z,4.25
2023-02-03T23:27:18.671Z,4.30
2023-02-03T23:29:46.154Z,4.60
2023-02-03T23:32:13.608Z,4.50
2023-02-03T23:35:13.187Z,4.57
2023-02-03T23:37:40.640Z,4.80
2023-02-03T23:40:09.657Z,4.80
2023-02-03T23:42:37.216Z,4.40
2023-02-03T23:45:11.666Z,4.50
2023-02-03T23:47:42.766Z,4.68
2023-02-03T23:50:11.534Z,4.70
2023-02-03T23:52:39.120Z,4.65
2023-02-03T23:55:11.211Z,5.53
2023-02-03T23:57:38.768Z,4.45
